Hauptseite
METAR-TAF:

METAR-TAF

Flughäfen :

Aeropuerto Internacional José Martí

Havanna, Kuba

Breite: 22-59N, Länge: 082-24W, Höhe: 59 m

Beobachtung

Neuester Wetterbericht von vor 49 Minuten, um 01:55 UTC
Wind 8 kt aus Ost/Nordost
Temperatur 22°C
Luftfeuchtigkeit 73%
Luftdruck 1018 hPa
Sichtweite: 9000 m
Leicht bewölkt in der Höhe von 3500 ft

METAR: MUHA 230155Z 07008KT 9000 FEW035 22/17 Q1018

Zeit: 22:44 (02:44 UTC)

Prognose

Neuester Wetterbericht von vor 3 Stunden und 44 Minuten, um 23:00 UTC
Gültige Prognose vom 23 um 00 UTC bis 23 um 24 UTC
Wind 10 kt aus Ost/Nordost
Sichtweite: 9000 m
Leicht bewölkt in der Höhe von 3500 ft

TAF: MUHA 222300Z 2300/2324 06010KT 9000 FEW035

Wetterbeobachtungen und Prognosen von mehr als 4000 Flughäfen (METAR und TAF Bericht).

Die verfügbaren Stationen werden durch gelbe und rote Markierungen auf der Karte dargestellt.

Führen Sie die Maus auf sie, um den Namen der Station zu sehen.

Darauf klicken, um die Beobachtung von Wetterbeobachtungen und Prognosen zu sehen.

Um die Karte zu ändern : klicken Sie auf den grünen Tasten mit einem schwarzen Kreuz Zum Vergrößern, auf den grünen Button mit einem Gedankenstrich zu verkleinern, oder auf die grünen Pfeile für benachbarte Karten.


METAR-TAF: